Chiang Mai, Thailand

02:18 AM +07 on April 30, 2017 (GMT +0700)
Chiang Mai International | | Change Station

Elev 1030 ft 18.78 °N, 98.98 °E | Updated 18 minutes ago

Växlande molnighet
Växlande molnighet
75 °F
Feels Like 75 °F
N
4
Vind Växlande Vind from N/NO

Idag
High -- | Low -- °F
--% Chance of Precip.
Yesterday
High -- | Low -- °F
Precip. -- tum
Lufttryck 29.92 tum
Sikt 6.2 miles
Molnigt Växlande molnighet 3500 ft
Daggpunkt 68 °F
Luftfuktighet 78%
Rainfall 0.00 tum
Snow Depth Not available.
5:55 AM 6:43 PM
Första kvarteret, 15% visible
METAR VTCC 291900Z 03003KT 9999 SCT035 24/20 Q1013 A2993 NOSIG
Lufttryck 29.92 tum
Sikt 6.2 miles
Molnigt Växlande molnighet 3500 ft
Daggpunkt 68 °F
Luftfuktighet 78%
Rainfall 0.00 tum
Snow Depth Not available.
5:55 AM 6:43 PM
Första kvarteret, 15% visible
METAR VTCC 291900Z 03003KT 9999 SCT035 24/20 Q1013 A2993 NOSIG

Get Severe Weather Alerts

Thanks for signing up!

Be on the lookout for a verification email in your inbox.

You'll start receiving the daily forecast at 8 AM.

×

10-Day Weather Forecast

No radar image for this location.
×

Almanac

Astronomi

Apr. 30, 2017 Rise Set
Actual Time
Civil Twilight
Nautical Twilight
Astronomical Twilight
Månen
Length Of Visible Light
Dagens längd
Tomorrow will be .
, % of the Moon is Illuminated

Today's Extremes

Country Highs Country Lows

Community

WunderPhotos

WunderBlog® & News

Nearby

Air Quality

  Air Quality AQ Index Pollutant
Not available.

Snödjup

Station Depth Elevation

Earthquake Activity

Stad Distance Mag. Time & Date
Minimum magnitude displayed is 2.5.

Coastal Water Temperatures

Plats Temperatur

Stations

Nearby Weather Stations

Station Location Temp Vindavkylning Daggpunkt Luftfuktighet Vind Precip. Elev Uppdaterad Type